createdAt,value
2023-05-19T00:04:01.835Z,95
2023-05-19T00:09:01.393Z,95
2023-05-19T00:14:01.745Z,95
2023-05-19T00:19:01.454Z,95
2023-05-19T00:24:00.147Z,95
2023-05-19T00:28:59.973Z,94
2023-05-19T00:33:59.105Z,94
2023-05-19T00:38:59.676Z,95
2023-05-19T00:43:57.027Z,95
2023-05-19T00:48:56.840Z,95
2023-05-19T00:53:56.894Z,95
2023-05-19T00:58:56.533Z,95
2023-05-19T01:03:55.202Z,94
2023-05-19T01:08:54.502Z,94
2023-05-19T01:13:54.398Z,95
2023-05-19T01:18:53.706Z,95
2023-05-19T01:23:52.625Z,95
2023-05-19T01:28:52.156Z,95
2023-05-19T01:33:51.971Z,95
2023-05-19T01:38:51.246Z,95
2023-05-19T01:43:51.913Z,95
2023-05-19T01:48:49.260Z,95
2023-05-19T01:53:48.914Z,95
2023-05-19T01:58:49.123Z,95
2023-05-19T02:03:48.622Z,94
2023-05-19T02:08:46.692Z,95
2023-05-19T02:13:46.528Z,95
2023-05-19T02:18:46.100Z,95
2023-05-19T02:23:46.774Z,95
2023-05-19T02:28:43.968Z,95
2023-05-19T02:33:43.548Z,95
2023-05-19T02:38:42.618Z,95
2023-05-19T02:43:42.192Z,96
2023-05-19T02:53:40.174Z,96
2023-05-19T02:58:40.177Z,96
2023-05-19T03:15:00.396Z,97
2023-05-19T03:25:00.170Z,97
2023-05-19T03:49:56.804Z,97
2023-05-19T03:54:56.517Z,96
2023-05-19T04:04:32.859Z,96
2023-05-19T04:09:31.323Z,96
2023-05-19T04:14:31.324Z,96
2023-05-19T04:19:32.328Z,96
2023-05-19T04:24:29.124Z,96
2023-05-19T04:29:29.157Z,96
2023-05-19T04:34:29.689Z,96
2023-05-19T04:39:26.504Z,96
2023-05-19T04:44:26.698Z,96
2023-05-19T04:49:26.617Z,96
2023-05-19T04:54:14.244Z,97
2023-05-19T04:59:00.704Z,96
2023-05-19T05:04:01.145Z,94
2023-05-19T05:09:00.902Z,93
2023-05-19T05:13:59.900Z,92
2023-05-19T05:18:59.390Z,89
2023-05-19T05:28:58.732Z,84
2023-05-19T05:33:57.105Z,82
2023-05-19T05:38:56.838Z,80
2023-05-19T05:43:57.090Z,80
2023-05-19T05:48:56.374Z,80
2023-05-19T05:53:55.455Z,78
2023-05-19T05:58:54.965Z,77
2023-05-19T06:03:54.932Z,77
2023-05-19T06:08:54.172Z,77
2023-05-19T06:13:54.902Z,77
2023-05-19T06:18:52.445Z,77
2023-05-19T06:23:52.558Z,76
2023-05-19T06:28:52.271Z,75
2023-05-19T06:33:51.756Z,74
2023-05-19T06:38:58.574Z,73
2023-05-19T06:43:49.604Z,74
2023-05-19T06:48:49.758Z,73
2023-05-19T06:53:48.245Z,74
2023-05-19T06:58:48.163Z,73
2023-05-19T07:00:09.083Z,72
2023-05-19T07:05:09.686Z,73
2023-05-19T07:15:07.090Z,71
2023-05-19T07:25:06.982Z,70
2023-05-19T07:30:05.638Z,68
2023-05-19T07:35:05.472Z,68
2023-05-19T07:40:05.617Z,66
2023-05-19T07:45:05.141Z,66
2023-05-19T07:50:04.522Z,65
2023-05-19T07:55:04.285Z,60
2023-05-19T07:59:08.664Z,60
2023-05-19T08:04:09.127Z,59
2023-05-19T08:09:08.748Z,56
2023-05-19T08:14:06.437Z,57
2023-05-19T08:19:06.321Z,57
2023-05-19T08:24:06.576Z,55
2023-05-19T08:29:06.111Z,55
2023-05-19T08:34:04.558Z,53
2023-05-19T08:39:04.841Z,53
2023-05-19T08:44:04.247Z,52
2023-05-19T08:49:05.312Z,52
2023-05-19T08:54:02.378Z,51
2023-05-19T08:59:02.761Z,50
2023-05-19T09:04:03.058Z,50
2023-05-19T09:09:02.389Z,50
2023-05-19T09:14:00.827Z,50
2023-05-19T09:19:00.960Z,49
2023-05-19T09:24:00.515Z,52
2023-05-19T09:29:00.328Z,49
2023-05-19T09:33:59.438Z,51
2023-05-19T09:38:59.202Z,52
2023-05-19T09:43:59.009Z,48
2023-05-19T09:48:58.667Z,45
2023-05-19T09:53:59.516Z,44
2023-05-19T09:58:56.915Z,47
2023-05-19T10:03:56.561Z,48
2023-05-19T10:08:56.936Z,48
2023-05-19T10:13:56.282Z,48
2023-05-19T10:18:54.471Z,47
2023-05-19T10:23:54.132Z,48
2023-05-19T10:28:53.529Z,50
2023-05-19T10:33:54.229Z,45
2023-05-19T10:38:51.875Z,50
2023-05-19T10:43:51.347Z,44
2023-05-19T10:48:51.376Z,42
2023-05-19T10:53:50.997Z,42
2023-05-19T10:58:49.476Z,46
2023-05-19T11:00:10.481Z,45
2023-05-19T11:05:10.370Z,45
2023-05-19T11:20:09.093Z,37
2023-05-19T11:25:09.067Z,38
2023-05-19T11:30:08.340Z,41
2023-05-19T11:35:09.085Z,40
2023-05-19T11:40:06.339Z,39
2023-05-19T11:45:05.874Z,39
2023-05-19T11:50:05.929Z,41
2023-05-19T11:55:05.881Z,38
2023-05-19T11:59:24.929Z,39
2023-05-19T12:34:22.645Z,40
2023-05-19T12:59:05.984Z,38
2023-05-19T13:04:06.547Z,37
2023-05-19T13:09:05.609Z,37
2023-05-19T13:14:04.333Z,39
2023-05-19T13:19:03.695Z,38
2023-05-19T13:24:03.690Z,38
2023-05-19T13:29:02.684Z,40
2023-05-19T13:34:00.650Z,39
2023-05-19T13:39:00.233Z,38
2023-05-19T13:44:00.334Z,38
2023-05-19T13:48:59.627Z,38
2023-05-19T13:53:57.841Z,40
2023-05-19T13:58:57.397Z,39
2023-05-19T14:03:57.704Z,40
2023-05-19T14:08:56.764Z,38
2023-05-19T14:13:56.309Z,38
2023-05-19T14:18:55.951Z,36
2023-05-19T14:23:55.567Z,36
2023-05-19T14:28:55.169Z,37
2023-05-19T14:33:55.824Z,37
2023-05-19T14:38:52.901Z,36
2023-05-19T14:43:52.918Z,37
2023-05-19T14:48:52.161Z,37
2023-05-19T14:53:51.592Z,38
2023-05-19T14:58:51.449Z,38
2023-05-19T15:03:50.763Z,39
2023-05-19T15:08:50.837Z,38
2023-05-19T15:13:48.952Z,38
2023-05-19T15:18:49.067Z,40
2023-05-19T15:23:48.704Z,42
2023-05-19T15:28:48.307Z,42
2023-05-19T15:33:47.502Z,40
2023-05-19T15:38:47.013Z,37
2023-05-19T15:43:46.884Z,39
2023-05-19T15:48:46.299Z,38
2023-05-19T15:53:46.982Z,39
2023-05-19T15:58:44.268Z,41
2023-05-19T16:00:05.496Z,41
2023-05-19T16:15:03.223Z,41
2023-05-19T16:20:02.687Z,41
2023-05-19T16:35:01.170Z,40
2023-05-19T16:40:00.547Z,41
2023-05-19T16:54:58.399Z,42
2023-05-19T17:04:31.251Z,41
2023-05-19T17:09:32.262Z,42
2023-05-19T17:14:29.466Z,42
2023-05-19T17:19:28.930Z,41
2023-05-19T17:24:30.217Z,43
2023-05-19T17:29:33.965Z,44
2023-05-19T17:34:26.881Z,44
2023-05-19T17:39:26.810Z,45
2023-05-19T17:44:14.329Z,44
2023-05-19T17:49:13.821Z,45
2023-05-19T17:54:13.752Z,43
2023-05-19T17:59:01.206Z,44
2023-05-19T18:04:00.878Z,46
2023-05-19T18:09:00.354Z,46
2023-05-19T18:14:00.188Z,45
2023-05-19T18:18:59.466Z,46
2023-05-19T18:23:57.418Z,45
2023-05-19T18:28:57.033Z,46
2023-05-19T18:33:57.033Z,46
2023-05-19T18:38:56.552Z,47
2023-05-19T18:43:55.869Z,49
2023-05-19T18:48:55.367Z,49
2023-05-19T18:53:55.595Z,50
2023-05-19T18:58:54.686Z,51
2023-05-19T19:03:55.393Z,51
2023-05-19T19:08:52.902Z,53
2023-05-19T19:13:52.361Z,56
2023-05-19T19:18:52.378Z,59
2023-05-19T19:23:51.896Z,60
2023-05-19T19:28:50.006Z,61
2023-05-19T19:33:49.620Z,62
2023-05-19T19:38:49.792Z,62
2023-05-19T19:43:49.189Z,62
2023-05-19T19:48:48.513Z,63
2023-05-19T19:53:48.088Z,64
2023-05-19T19:58:47.720Z,64
2023-05-19T20:00:12.375Z,65
2023-05-19T20:05:07.503Z,65
2023-05-19T20:10:07.175Z,66
2023-05-19T20:45:03.734Z,68
2023-05-19T21:04:08.416Z,66
2023-05-19T21:09:05.779Z,66
2023-05-19T21:19:05.806Z,65
2023-05-19T21:24:05.321Z,65
2023-05-19T21:29:03.758Z,65
2023-05-19T21:34:03.738Z,65
2023-05-19T21:39:17.526Z,66
2023-05-19T21:44:03.737Z,66
2023-05-19T21:49:01.235Z,66
2023-05-19T21:54:01.081Z,66
2023-05-19T21:59:00.463Z,66
2023-05-19T22:03:59.823Z,67
2023-05-19T22:08:58.481Z,67
2023-05-19T22:13:57.755Z,67
2023-05-19T22:18:57.911Z,67
2023-05-19T22:23:57.022Z,67
2023-05-19T22:28:56.650Z,68
2023-05-19T22:33:56.131Z,68
2023-05-19T22:38:56.323Z,68
2023-05-19T22:43:55.198Z,68
2023-05-19T22:48:55.804Z,69
2023-05-19T22:53:53.107Z,69
2023-05-19T22:58:52.822Z,69
2023-05-19T23:03:53.177Z,69
2023-05-19T23:08:52.738Z,69
2023-05-19T23:13:51.101Z,70
2023-05-19T23:18:51.464Z,70
2023-05-19T23:23:50.773Z,70
2023-05-19T23:28:51.785Z,70
2023-05-19T23:33:49.128Z,70
2023-05-19T23:38:48.863Z,70
2023-05-19T23:43:48.320Z,70
2023-05-19T23:48:47.818Z,71
2023-05-19T23:53:46.175Z,71
2023-05-19T23:58:45.763Z,71
